createdAt,value
2022-10-02T00:02:27.935Z,14.50
2022-10-02T00:05:07.491Z,14.50
2022-10-02T00:07:38.434Z,14.50
2022-10-02T00:10:20.339Z,14.50
2022-10-02T00:12:50.330Z,14.50
2022-10-02T00:15:20.580Z,14.50
2022-10-02T00:17:49.133Z,14.50
2022-10-02T00:20:18.082Z,14.50
2022-10-02T00:23:02.333Z,14.50
2022-10-02T00:25:35.686Z,14.50
2022-10-02T00:28:11.592Z,14.50
2022-10-02T00:31:02.100Z,14.50
2022-10-02T00:33:35.503Z,14.50
2022-10-02T00:36:05.871Z,14.50
2022-10-02T00:38:53.709Z,14.50
2022-10-02T00:41:46.057Z,14.50
2022-10-02T00:44:31.784Z,14.50
2022-10-02T00:46:59.090Z,14.50
2022-10-02T00:49:45.007Z,14.50
2022-10-02T00:52:28.435Z,14.50
2022-10-02T00:54:58.677Z,14.50
2022-10-02T00:57:32.868Z,14.50
2022-10-02T01:00:03.320Z,14.50
2022-10-02T01:02:36.909Z,14.50
2022-10-02T01:05:05.998Z,14.50
2022-10-02T01:07:35.099Z,14.60
2022-10-02T01:10:02.419Z,14.60
2022-10-02T01:12:29.747Z,14.60
2022-10-02T01:14:57.165Z,14.60
2022-10-02T01:17:28.785Z,14.60
2022-10-02T01:19:56.470Z,14.60
2022-10-02T01:22:23.946Z,14.60
2022-10-02T01:24:51.284Z,14.60
2022-10-02T01:27:18.784Z,14.60
2022-10-02T01:29:48.540Z,14.60
2022-10-02T01:32:16.191Z,14.70
2022-10-02T01:34:43.952Z,14.70
2022-10-02T01:37:11.403Z,14.70
2022-10-02T01:39:38.770Z,14.70
2022-10-02T01:42:06.139Z,14.70
2022-10-02T01:44:34.887Z,14.70
2022-10-02T01:47:07.120Z,14.70
2022-10-02T01:49:43.632Z,14.70
2022-10-02T01:52:13.683Z,14.70
2022-10-02T01:54:53.266Z,14.70
2022-10-02T01:57:36.308Z,14.70
2022-10-02T02:00:16.032Z,14.70
2022-10-02T02:02:49.547Z,14.70
2022-10-02T02:05:31.306Z,14.70
2022-10-02T02:08:10.906Z,14.70
2022-10-02T02:10:50.344Z,14.70
2022-10-02T02:13:25.269Z,14.80
2022-10-02T02:16:16.878Z,14.80
2022-10-02T02:18:49.401Z,14.70
2022-10-02T02:21:22.522Z,14.80
2022-10-02T02:23:50.300Z,14.80
2022-10-02T02:26:19.126Z,14.80
2022-10-02T02:28:51.411Z,14.80
2022-10-02T02:31:21.217Z,14.70
2022-10-02T02:33:50.905Z,14.70
2022-10-02T02:36:19.984Z,14.70
2022-10-02T02:38:52.847Z,14.70
2022-10-02T02:41:22.394Z,14.70
2022-10-02T02:44:12.947Z,14.70
2022-10-02T02:47:02.835Z,14.70
2022-10-02T02:49:32.999Z,14.70
2022-10-02T02:52:01.820Z,14.70
2022-10-02T02:54:37.790Z,14.70
2022-10-02T02:57:06.705Z,14.70
2022-10-02T02:59:34.371Z,14.70
2022-10-02T03:02:02.061Z,14.70
2022-10-02T03:04:29.504Z,14.70
2022-10-02T03:06:58.946Z,14.60
2022-10-02T03:09:26.839Z,14.60
2022-10-02T03:12:00.645Z,14.60
2022-10-02T03:14:27.941Z,14.60
2022-10-02T03:17:13.492Z,14.60
2022-10-02T03:19:44.641Z,14.60
2022-10-02T03:22:35.838Z,14.60
2022-10-02T03:25:06.247Z,14.60
2022-10-02T03:27:54.264Z,14.60
2022-10-02T03:30:22.335Z,14.60
2022-10-02T03:32:53.791Z,14.60
2022-10-02T03:35:22.177Z,14.60
2022-10-02T03:37:54.841Z,14.70
2022-10-02T03:40:24.454Z,14.60
2022-10-02T03:42:52.606Z,14.70
2022-10-02T03:45:46.295Z,14.70
2022-10-02T03:48:07.612Z,14.70
2022-10-02T03:50:36.525Z,14.70
2022-10-02T03:53:10.324Z,14.70
2022-10-02T03:55:43.172Z,14.70
2022-10-02T03:58:12.988Z,14.70
2022-10-02T04:00:43.626Z,14.70
2022-10-02T04:03:13.212Z,14.70
2022-10-02T04:05:42.198Z,14.70
2022-10-02T04:08:11.654Z,14.70
2022-10-02T04:10:45.268Z,14.80
2022-10-02T04:13:16.994Z,14.80
2022-10-02T04:15:59.992Z,14.80
2022-10-02T04:18:32.644Z,14.80
2022-10-02T04:21:03.354Z,14.80
2022-10-02T04:23:33.812Z,14.80
2022-10-02T04:26:13.647Z,14.80
2022-10-02T04:28:43.873Z,14.80
2022-10-02T04:31:13.027Z,14.90
2022-10-02T04:33:43.569Z,14.90
2022-10-02T04:36:11.063Z,14.80
2022-10-02T04:39:03.452Z,14.90
2022-10-02T04:41:38.662Z,14.90
2022-10-02T04:44:21.875Z,14.80
2022-10-02T04:46:58.126Z,14.80
2022-10-02T04:49:43.423Z,14.80
2022-10-02T04:52:29.317Z,14.80
2022-10-02T04:55:25.981Z,14.80
2022-10-02T04:57:59.276Z,14.70
2022-10-02T05:00:30.290Z,14.70
2022-10-02T05:03:22.950Z,14.70
2022-10-02T05:05:53.104Z,14.70
2022-10-02T05:08:39.013Z,14.70
2022-10-02T05:11:24.734Z,14.70
2022-10-02T05:13:59.495Z,14.70
2022-10-02T05:16:26.935Z,14.70
2022-10-02T05:18:54.297Z,14.70
2022-10-02T05:21:30.666Z,14.70
2022-10-02T05:24:21.729Z,14.60
2022-10-02T05:26:49.145Z,14.60
2022-10-02T05:29:25.636Z,14.60
2022-10-02T05:32:00.663Z,14.60
2022-10-02T05:34:43.987Z,14.60
2022-10-02T05:37:17.418Z,14.50
2022-10-02T05:39:56.788Z,14.50
2022-10-02T05:42:40.013Z,14.50
2022-10-02T05:45:26.599Z,14.50
2022-10-02T05:47:56.021Z,14.50
2022-10-02T05:50:29.983Z,14.50
2022-10-02T05:53:06.404Z,14.40
2022-10-02T05:55:45.343Z,14.40
2022-10-02T05:58:17.367Z,14.40
2022-10-02T06:00:48.245Z,14.40
2022-10-02T06:03:21.862Z,14.40
2022-10-02T06:06:01.232Z,14.40
2022-10-02T06:08:39.231Z,14.40
2022-10-02T06:11:10.703Z,14.40
2022-10-02T06:13:44.337Z,14.40
2022-10-02T06:16:14.769Z,14.40
2022-10-02T06:18:44.101Z,14.40
2022-10-02T06:21:15.259Z,14.40
2022-10-02T06:23:44.844Z,14.40
2022-10-02T06:26:32.418Z,14.50
2022-10-02T06:29:03.453Z,14.50
2022-10-02T06:31:46.152Z,14.50
2022-10-02T06:34:14.240Z,14.50
2022-10-02T06:36:52.964Z,14.50
2022-10-02T06:39:23.267Z,14.60
2022-10-02T06:42:02.467Z,14.60
2022-10-02T06:44:35.834Z,14.60
2022-10-02T06:47:22.501Z,14.60
2022-10-02T06:49:59.149Z,14.60
2022-10-02T06:52:32.193Z,14.60
2022-10-02T06:55:20.496Z,14.70
2022-10-02T06:58:03.862Z,14.70
2022-10-02T07:00:34.014Z,14.70
2022-10-02T07:03:09.789Z,14.70
2022-10-02T07:06:00.517Z,14.70
2022-10-02T07:08:47.190Z,14.70
2022-10-02T07:11:23.560Z,14.70
2022-10-02T07:14:00.032Z,14.60
2022-10-02T07:16:53.771Z,14.60
2022-10-02T07:19:39.664Z,14.60
2022-10-02T07:22:42.997Z,14.60
2022-10-02T07:25:25.779Z,14.60
2022-10-02T07:27:56.219Z,14.60
2022-10-02T07:30:23.769Z,14.60
2022-10-02T07:33:09.554Z,14.60
2022-10-02T07:35:56.576Z,14.60
2022-10-02T07:38:43.442Z,14.70
2022-10-02T07:41:16.842Z,14.70
2022-10-02T07:43:44.369Z,14.80
2022-10-02T07:46:19.613Z,14.80
2022-10-02T07:48:55.917Z,14.80
2022-10-02T07:51:47.842Z,14.90
2022-10-02T07:54:24.316Z,15.00
2022-10-02T07:56:54.796Z,15.00
2022-10-02T07:59:23.659Z,15.00
2022-10-02T08:01:51.545Z,15.10
2022-10-02T08:04:39.704Z,15.10
2022-10-02T08:07:07.092Z,15.20
2022-10-02T08:09:34.359Z,15.20
2022-10-02T08:12:20.768Z,15.20
2022-10-02T08:14:50.971Z,15.20
2022-10-02T08:17:40.019Z,15.30
2022-10-02T08:20:25.351Z,15.40
2022-10-02T08:23:07.127Z,15.40
2022-10-02T08:25:45.654Z,15.50
2022-10-02T08:28:25.667Z,15.60
2022-10-02T08:30:53.006Z,15.60
2022-10-02T08:33:21.495Z,15.70
2022-10-02T08:35:51.915Z,15.70
2022-10-02T08:38:40.903Z,15.80
2022-10-02T08:41:17.348Z,15.80
2022-10-02T08:44:03.390Z,15.90
2022-10-02T08:46:31.880Z,16.00
2022-10-02T08:49:18.029Z,16.00
2022-10-02T08:52:03.893Z,16.10
2022-10-02T08:54:38.603Z,16.10
2022-10-02T08:57:23.326Z,16.20
2022-10-02T09:00:00.334Z,16.20
2022-10-02T09:02:36.708Z,16.20
2022-10-02T09:05:04.213Z,16.20
2022-10-02T09:07:50.369Z,16.20
2022-10-02T09:10:21.068Z,16.20
2022-10-02T09:12:58.498Z,16.20
2022-10-02T09:15:32.006Z,16.30
2022-10-02T09:18:19.496Z,16.30
2022-10-02T09:21:01.923Z,16.30
2022-10-02T09:23:29.182Z,16.40
2022-10-02T09:26:02.826Z,16.50
2022-10-02T09:28:48.535Z,16.50
2022-10-02T09:31:30.357Z,16.60
2022-10-02T09:34:12.977Z,16.60
2022-10-02T09:36:52.513Z,16.70
2022-10-02T09:39:38.765Z,16.80
2022-10-02T09:42:24.746Z,16.90
2022-10-02T09:45:02.061Z,17.00
2022-10-02T09:47:43.812Z,17.10
2022-10-02T09:50:11.979Z,17.10
2022-10-02T09:52:57.828Z,17.20
2022-10-02T09:55:45.757Z,17.20
2022-10-02T09:58:13.101Z,17.10
2022-10-02T10:00:58.760Z,17.10
2022-10-02T10:03:26.122Z,17.10
2022-10-02T10:05:56.247Z,17.20
2022-10-02T10:08:23.557Z,17.20
2022-10-02T10:11:10.849Z,17.20
2022-10-02T10:13:41.261Z,17.30
2022-10-02T10:16:29.810Z,17.30
2022-10-02T10:19:15.507Z,17.30
2022-10-02T10:21:54.304Z,17.30
2022-10-02T10:24:24.677Z,17.30
2022-10-02T10:27:10.832Z,17.30
2022-10-02T10:29:45.540Z,17.30
2022-10-02T10:32:34.737Z,17.30
2022-10-02T10:35:19.806Z,17.30
2022-10-02T10:38:12.986Z,17.30
2022-10-02T10:40:43.370Z,17.30
2022-10-02T10:43:19.279Z,17.30
2022-10-02T10:45:49.926Z,17.40
2022-10-02T10:48:27.780Z,17.50
2022-10-02T10:51:02.428Z,17.50
2022-10-02T10:53:39.509Z,17.60
2022-10-02T10:56:17.922Z,17.70
2022-10-02T10:58:45.177Z,17.70
2022-10-02T11:01:20.092Z,17.80
2022-10-02T11:04:07.058Z,17.80
2022-10-02T11:06:50.746Z,17.90
2022-10-02T11:09:20.916Z,18.00
2022-10-02T11:11:56.287Z,18.00
2022-10-02T11:14:35.919Z,18.00
2022-10-02T11:17:12.229Z,18.10
2022-10-02T11:19:45.903Z,18.10
2022-10-02T11:22:31.824Z,18.20
2022-10-02T11:25:08.332Z,18.20
2022-10-02T11:27:37.970Z,18.30
2022-10-02T11:30:05.597Z,18.30
2022-10-02T11:32:48.130Z,18.40
2022-10-02T11:35:21.076Z,18.40
2022-10-02T11:38:03.847Z,18.40
2022-10-02T11:40:40.620Z,18.50
2022-10-02T11:43:14.359Z,18.50
2022-10-02T11:45:55.516Z,18.60
2022-10-02T11:48:24.343Z,18.60
2022-10-02T11:50:57.890Z,18.70
2022-10-02T11:53:25.324Z,18.60
2022-10-02T11:56:21.427Z,18.70
2022-10-02T11:59:18.833Z,18.70
2022-10-02T12:01:55.151Z,18.80
2022-10-02T12:04:23.244Z,18.80
2022-10-02T12:06:50.699Z,18.80
2022-10-02T12:09:26.071Z,18.80
2022-10-02T12:12:06.586Z,18.80
2022-10-02T12:14:43.456Z,18.80
2022-10-02T12:17:22.752Z,18.80
2022-10-02T12:20:31.722Z,18.80
2022-10-02T12:23:36.224Z,18.80
2022-10-02T12:26:31.625Z,18.70
2022-10-02T12:29:04.087Z,18.70
2022-10-02T12:31:34.922Z,18.80
2022-10-02T12:34:21.358Z,18.90
2022-10-02T12:37:18.141Z,19.00
2022-10-02T12:39:45.486Z,19.00
2022-10-02T12:42:22.036Z,19.00
2022-10-02T12:44:58.540Z,19.00
2022-10-02T12:47:44.798Z,19.00
2022-10-02T12:50:23.536Z,19.00
2022-10-02T12:53:09.290Z,19.10
2022-10-02T12:55:45.038Z,19.00
2022-10-02T12:58:23.944Z,19.00
2022-10-02T13:00:51.264Z,19.10
2022-10-02T13:03:21.610Z,19.10
2022-10-02T13:05:51.923Z,19.10
2022-10-02T13:08:24.808Z,19.00
2022-10-02T13:11:10.760Z,19.00
2022-10-02T13:13:53.544Z,19.00
2022-10-02T13:16:34.186Z,19.00
2022-10-02T13:19:09.438Z,19.00
2022-10-02T13:21:54.824Z,19.00
2022-10-02T13:24:40.919Z,18.90
2022-10-02T13:27:24.444Z,18.80
2022-10-02T13:30:10.293Z,18.80
2022-10-02T13:32:38.527Z,18.60
2022-10-02T13:35:33.310Z,18.50
2022-10-02T13:38:01.261Z,18.50
2022-10-02T13:40:34.790Z,18.50
2022-10-02T13:43:09.381Z,18.50
2022-10-02T13:45:50.088Z,18.50
2022-10-02T13:48:30.285Z,18.50
2022-10-02T13:51:06.694Z,18.50
2022-10-02T13:53:45.569Z,18.50
2022-10-02T13:56:31.390Z,18.50
2022-10-02T13:58:58.706Z,18.50
2022-10-02T14:01:29.159Z,18.40
2022-10-02T14:03:59.300Z,18.40
2022-10-02T14:06:26.699Z,18.40
2022-10-02T14:09:01.425Z,18.40
2022-10-02T14:11:43.845Z,18.40
2022-10-02T14:14:29.023Z,18.40
2022-10-02T14:17:19.907Z,18.40
2022-10-02T14:19:52.686Z,18.50
2022-10-02T14:22:38.515Z,18.50
2022-10-02T14:25:17.865Z,18.60
2022-10-02T14:27:45.267Z,18.60
2022-10-02T14:30:22.878Z,18.60
2022-10-02T14:32:59.219Z,18.60
2022-10-02T14:35:45.166Z,18.60
2022-10-02T14:38:12.596Z,18.60
2022-10-02T14:40:51.316Z,18.70
2022-10-02T14:43:24.747Z,18.70
2022-10-02T14:45:59.093Z,18.80
2022-10-02T14:48:45.189Z,18.90
2022-10-02T14:51:24.935Z,18.90
2022-10-02T14:53:55.245Z,18.90
2022-10-02T14:56:28.475Z,19.00
2022-10-02T14:59:10.947Z,19.10
2022-10-02T15:01:42.445Z,19.20
2022-10-02T15:04:17.106Z,19.30
2022-10-02T15:06:56.573Z,19.40
2022-10-02T15:09:27.170Z,19.40
2022-10-02T15:12:01.481Z,19.50
2022-10-02T15:14:31.807Z,19.40
2022-10-02T15:17:25.614Z,19.40
2022-10-02T15:19:56.185Z,19.30
2022-10-02T15:22:30.207Z,19.30
2022-10-02T15:25:17.570Z,19.20
2022-10-02T15:28:34.978Z,19.10
2022-10-02T15:31:10.506Z,19.00
2022-10-02T15:33:42.887Z,19.00
2022-10-02T15:36:10.291Z,19.00
2022-10-02T15:39:05.286Z,19.00
2022-10-02T15:41:40.140Z,19.00
2022-10-02T15:44:10.663Z,19.00
2022-10-02T15:46:43.874Z,19.00
2022-10-02T15:49:16.212Z,18.90
2022-10-02T15:52:02.223Z,18.90
2022-10-02T15:54:35.781Z,18.90
2022-10-02T15:57:12.178Z,18.80
2022-10-02T15:59:45.420Z,18.70
2022-10-02T16:02:31.562Z,18.60
2022-10-02T16:05:11.299Z,18.50
2022-10-02T16:07:53.936Z,18.40
2022-10-02T16:10:28.545Z,18.30
2022-10-02T16:12:55.809Z,18.20
2022-10-02T16:15:26.116Z,18.10
2022-10-02T16:18:02.320Z,18.10
2022-10-02T16:20:48.219Z,18.00
2022-10-02T16:23:15.494Z,17.90
2022-10-02T16:26:01.463Z,17.90
2022-10-02T16:28:41.133Z,17.80
2022-10-02T16:31:09.769Z,17.80
2022-10-02T16:33:49.458Z,17.70
2022-10-02T16:36:40.596Z,17.60
2022-10-02T16:39:14.277Z,17.50
2022-10-02T16:41:55.188Z,17.50
2022-10-02T16:44:28.046Z,17.50
2022-10-02T16:47:04.575Z,17.40
2022-10-02T16:49:42.484Z,17.40
2022-10-02T16:52:28.745Z,17.30
2022-10-02T16:55:09.012Z,17.30
2022-10-02T16:57:42.370Z,17.20
2022-10-02T17:00:24.340Z,17.20
2022-10-02T17:03:02.347Z,17.10
2022-10-02T17:05:49.977Z,17.10
2022-10-02T17:08:20.313Z,17.10
2022-10-02T17:11:04.296Z,17.00
2022-10-02T17:13:36.638Z,17.00
2022-10-02T17:16:16.409Z,16.90
2022-10-02T17:18:50.983Z,16.90
2022-10-02T17:21:37.018Z,16.90
2022-10-02T17:24:23.147Z,16.90
2022-10-02T17:26:53.512Z,16.90
2022-10-02T17:29:47.277Z,16.90
2022-10-02T17:32:33.478Z,16.80
2022-10-02T17:35:00.833Z,16.80
2022-10-02T17:37:45.771Z,16.70
2022-10-02T17:40:18.327Z,16.70
2022-10-02T17:42:48.467Z,16.60
2022-10-02T17:45:26.628Z,16.60
2022-10-02T17:48:14.569Z,16.50
2022-10-02T17:50:46.628Z,16.50
2022-10-02T17:53:40.589Z,16.50
2022-10-02T17:56:30.553Z,16.50
2022-10-02T17:59:16.727Z,16.40
2022-10-02T18:01:53.262Z,16.40
2022-10-02T18:04:23.738Z,16.40
2022-10-02T18:07:08.801Z,16.40
2022-10-02T18:09:36.135Z,16.30
2022-10-02T18:12:12.455Z,16.30
2022-10-02T18:14:42.585Z,16.30
2022-10-02T18:17:21.115Z,16.30
2022-10-02T18:19:57.852Z,16.20
2022-10-02T18:22:34.741Z,16.20
2022-10-02T18:25:12.834Z,16.20
2022-10-02T18:27:43.098Z,16.20
2022-10-02T18:30:23.879Z,16.20
2022-10-02T18:33:08.889Z,16.20
2022-10-02T18:35:51.388Z,16.20
2022-10-02T18:38:37.452Z,16.20
2022-10-02T18:41:08.814Z,16.20
2022-10-02T18:43:36.200Z,16.20
2022-10-02T18:46:12.067Z,16.10
2022-10-02T18:48:58.964Z,16.10
2022-10-02T18:51:29.447Z,16.10
2022-10-02T18:53:59.529Z,16.20
2022-10-02T18:56:42.169Z,16.10
2022-10-02T18:59:24.853Z,16.10
2022-10-02T19:01:55.855Z,16.10
2022-10-02T19:04:31.301Z,16.10
2022-10-02T19:07:02.962Z,16.10
2022-10-02T19:09:31.088Z,16.10
2022-10-02T19:12:15.219Z,16.10
2022-10-02T19:14:46.037Z,16.10
2022-10-02T19:17:13.601Z,16.10
2022-10-02T19:19:42.105Z,16.10
2022-10-02T19:22:22.824Z,16.10
2022-10-02T19:24:54.426Z,16.10
2022-10-02T19:27:25.873Z,16.10
2022-10-02T19:30:00.419Z,16.10
2022-10-02T19:32:29.438Z,16.10
2022-10-02T19:34:59.349Z,16.00
2022-10-02T19:37:27.388Z,16.00
2022-10-02T19:39:56.190Z,16.00
2022-10-02T19:42:25.975Z,16.00
2022-10-02T19:44:57.443Z,16.00
2022-10-02T19:47:46.636Z,16.00
2022-10-02T19:50:22.173Z,16.00
2022-10-02T19:52:54.529Z,16.00
2022-10-02T19:55:24.345Z,16.00
2022-10-02T19:57:54.282Z,16.00
2022-10-02T20:00:22.713Z,15.90
2022-10-02T20:02:59.917Z,15.90
2022-10-02T20:05:29.755Z,15.90
2022-10-02T20:08:01.920Z,15.90
2022-10-02T20:10:36.274Z,15.90
2022-10-02T20:13:23.808Z,15.90
2022-10-02T20:16:33.358Z,15.90
2022-10-02T20:19:01.001Z,15.90
2022-10-02T20:21:42.415Z,15.90
2022-10-02T20:24:15.792Z,15.90
2022-10-02T20:26:45.213Z,15.90
2022-10-02T20:29:18.154Z,15.90
2022-10-02T20:32:03.342Z,15.90
2022-10-02T20:34:33.470Z,15.90
2022-10-02T20:37:09.622Z,15.90
2022-10-02T20:39:39.208Z,15.90
2022-10-02T20:42:15.813Z,15.90
2022-10-02T20:44:43.461Z,15.90
2022-10-02T20:47:36.909Z,15.90
2022-10-02T20:50:04.759Z,16.00
2022-10-02T20:52:52.053Z,16.00
2022-10-02T20:55:30.515Z,16.00
2022-10-02T20:58:33.351Z,16.00
2022-10-02T21:01:00.828Z,16.00
2022-10-02T21:03:46.800Z,16.00
2022-10-02T21:06:21.625Z,16.00
2022-10-02T21:08:49.034Z,16.00
2022-10-02T21:11:19.074Z,16.00
2022-10-02T21:13:55.275Z,16.00
2022-10-02T21:16:52.149Z,16.00
2022-10-02T21:19:31.559Z,16.00
2022-10-02T21:22:17.394Z,16.00
2022-10-02T21:24:44.907Z,16.00
2022-10-02T21:27:31.036Z,16.00
2022-10-02T21:30:17.890Z,16.00
2022-10-02T21:33:04.319Z,16.00
2022-10-02T21:35:34.820Z,16.00
2022-10-02T21:38:17.565Z,16.00
2022-10-02T21:41:00.492Z,16.00
2022-10-02T21:43:46.458Z,16.10
2022-10-02T21:46:22.337Z,16.10
2022-10-02T21:49:06.125Z,16.10
2022-10-02T21:51:52.445Z,16.10
2022-10-02T21:54:38.596Z,16.10
2022-10-02T21:57:09.028Z,16.20
2022-10-02T21:59:45.244Z,16.20
2022-10-02T22:02:28.885Z,16.20
2022-10-02T22:05:19.955Z,16.20
2022-10-02T22:07:51.169Z,16.20
2022-10-02T22:10:36.448Z,16.20
2022-10-02T22:13:18.720Z,16.20
2022-10-02T22:15:54.760Z,16.20
2022-10-02T22:18:39.634Z,16.20
2022-10-02T22:21:15.938Z,16.10
2022-10-02T22:23:55.705Z,16.10
2022-10-02T22:26:38.112Z,16.10
2022-10-02T22:29:23.827Z,16.10
2022-10-02T22:32:20.139Z,16.10
2022-10-02T22:34:59.537Z,16.10
2022-10-02T22:37:40.411Z,16.10
2022-10-02T22:40:11.412Z,16.10
2022-10-02T22:42:41.648Z,16.10
2022-10-02T22:45:16.409Z,16.10
2022-10-02T22:47:54.503Z,16.00
2022-10-02T22:50:26.378Z,16.00
2022-10-02T22:52:58.168Z,16.00
2022-10-02T22:55:29.489Z,16.00
2022-10-02T22:58:18.962Z,16.00
2022-10-02T23:00:56.332Z,16.00
2022-10-02T23:03:28.459Z,16.00
2022-10-02T23:06:04.373Z,15.90
2022-10-02T23:08:43.533Z,15.90
2022-10-02T23:11:44.321Z,15.90
2022-10-02T23:14:26.889Z,15.90
2022-10-02T23:17:01.805Z,15.90
2022-10-02T23:19:45.135Z,15.90
2022-10-02T23:22:24.572Z,15.90
2022-10-02T23:24:52.288Z,15.90
2022-10-02T23:27:23.745Z,15.90
2022-10-02T23:30:05.399Z,16.00
2022-10-02T23:32:33.014Z,16.00
2022-10-02T23:35:05.301Z,16.00
2022-10-02T23:37:32.778Z,16.00
2022-10-02T23:40:03.067Z,16.00
2022-10-02T23:42:35.852Z,16.00
2022-10-02T23:45:19.591Z,16.00
2022-10-02T23:47:55.135Z,16.00
2022-10-02T23:50:24.501Z,16.00
2022-10-02T23:52:54.832Z,16.00
2022-10-02T23:55:28.107Z,16.00
2022-10-02T23:57:55.420Z,16.00
